createdAt,value
2022-11-06T00:03:07.206Z,72.97
2022-11-06T00:06:51.521Z,72.76
2022-11-06T00:10:16.950Z,72.71
2022-11-06T00:13:45.073Z,73.03
2022-11-06T00:17:13.352Z,73.04
2022-11-06T00:20:41.082Z,73.03
2022-11-06T00:24:10.394Z,72.97
2022-11-06T00:27:39.654Z,72.84
2022-11-06T00:31:09.928Z,72.58
2022-11-06T00:34:38.047Z,72.80
2022-11-06T00:38:04.545Z,72.37
2022-11-06T00:41:31.834Z,72.44
2022-11-06T00:44:58.688Z,72.51
2022-11-06T00:48:25.655Z,72.38
2022-11-06T00:51:52.928Z,72.54
2022-11-06T00:55:19.509Z,72.47
2022-11-06T00:58:47.153Z,72.63
2022-11-06T01:02:19.813Z,72.70
2022-11-06T01:05:47.035Z,72.43
2022-11-06T01:09:15.845Z,72.57
2022-11-06T01:12:42.721Z,73.18
2022-11-06T01:16:12.698Z,73.28
2022-11-06T01:19:39.714Z,73.42
2022-11-06T01:23:06.398Z,73.18
2022-11-06T01:26:38.540Z,72.92
2022-11-06T01:30:08.321Z,72.73
2022-11-06T01:33:35.167Z,72.69
2022-11-06T01:37:04.459Z,72.77
2022-11-06T01:40:31.948Z,72.77
2022-11-06T01:44:01.695Z,72.65
2022-11-06T01:47:31.174Z,72.75
2022-11-06T01:50:59.638Z,72.75
2022-11-06T01:54:29.694Z,72.67
2022-11-06T01:57:59.632Z,72.76
2022-11-06T02:01:26.723Z,72.47
2022-11-06T02:04:53.963Z,72.80
2022-11-06T02:08:23.220Z,72.95
2022-11-06T02:11:53.046Z,72.79
2022-11-06T02:15:28.772Z,73.00
2022-11-06T02:19:14.625Z,73.05
2022-11-06T02:23:10.222Z,73.31
2022-11-06T02:27:07.354Z,72.74
2022-11-06T02:30:40.397Z,73.04
2022-11-06T02:34:13.605Z,73.23
2022-11-06T02:37:43.727Z,73.14
2022-11-06T02:41:14.153Z,72.69
2022-11-06T02:44:42.039Z,72.60
2022-11-06T02:48:11.884Z,73.01
2022-11-06T02:51:43.473Z,73.08
2022-11-06T02:55:15.847Z,72.92
2022-11-06T02:58:49.157Z,73.20
2022-11-06T03:02:20.492Z,73.05
2022-11-06T03:05:53.956Z,73.31
2022-11-06T03:09:26.084Z,73.10
2022-11-06T03:13:00.812Z,73.42
2022-11-06T03:16:44.680Z,73.44
2022-11-06T03:20:26.570Z,73.68
2022-11-06T03:23:57.509Z,73.79
2022-11-06T03:27:30.102Z,73.60
2022-11-06T03:31:00.936Z,73.69
2022-11-06T03:34:37.985Z,73.94
2022-11-06T03:38:09.755Z,73.99
2022-11-06T03:41:44.053Z,73.65
2022-11-06T03:45:15.215Z,73.31
2022-11-06T03:48:46.565Z,73.25
2022-11-06T03:52:17.867Z,73.45
2022-11-06T03:55:51.474Z,73.10
2022-11-06T03:59:23.644Z,73.38
2022-11-06T04:03:05.231Z,73.28
2022-11-06T04:06:37.725Z,73.20
2022-11-06T04:10:24.691Z,73.33
2022-11-06T04:14:01.225Z,73.46
2022-11-06T04:17:31.049Z,72.89
2022-11-06T04:21:26.304Z,73.21
2022-11-06T04:25:24.390Z,73.39
2022-11-06T04:29:03.479Z,73.56
2022-11-06T04:32:39.133Z,73.80
2022-11-06T04:36:17.936Z,73.89
2022-11-06T04:39:57.874Z,73.76
2022-11-06T04:43:35.729Z,73.93
2022-11-06T04:47:07.126Z,73.92
2022-11-06T04:50:38.335Z,74.01
2022-11-06T04:54:05.875Z,73.77
2022-11-06T04:57:33.145Z,74.10
2022-11-06T05:01:00.533Z,73.65
2022-11-06T05:04:27.632Z,74.07
2022-11-06T05:07:54.462Z,73.73
2022-11-06T05:11:21.147Z,73.34
2022-11-06T05:14:48.020Z,73.47
2022-11-06T05:18:15.351Z,73.19
2022-11-06T05:22:00.146Z,73.35
2022-11-06T05:25:27.061Z,73.27
2022-11-06T05:28:53.772Z,73.18
2022-11-06T05:32:20.519Z,73.54
2022-11-06T05:35:47.073Z,73.27
2022-11-06T05:39:14.360Z,73.43
2022-11-06T05:42:42.227Z,73.81
2022-11-06T05:46:29.663Z,73.62
2022-11-06T05:49:56.679Z,73.78
2022-11-06T05:53:23.920Z,73.78
2022-11-06T05:56:50.690Z,74.02
2022-11-06T06:00:18.581Z,73.91
2022-11-06T06:03:45.305Z,73.85
2022-11-06T06:07:12.422Z,73.70
2022-11-06T06:10:41.889Z,73.53
2022-11-06T06:14:08.829Z,73.63
2022-11-06T06:17:37.183Z,73.49
2022-11-06T06:21:04.164Z,73.57
2022-11-06T06:24:31.224Z,73.37
2022-11-06T06:27:59.098Z,73.59
2022-11-06T06:31:27.081Z,73.66
2022-11-06T06:34:55.341Z,73.48
2022-11-06T06:38:26.139Z,73.40
2022-11-06T06:41:52.867Z,73.55
2022-11-06T06:45:20.090Z,73.76
2022-11-06T06:48:47.099Z,73.67
2022-11-06T06:52:14.874Z,74.00
2022-11-06T06:55:42.342Z,74.41
2022-11-06T06:59:09.657Z,74.27
2022-11-06T07:02:36.764Z,74.41
2022-11-06T07:06:06.017Z,74.84
2022-11-06T07:09:34.793Z,74.97
2022-11-06T07:13:03.859Z,74.97
2022-11-06T07:16:32.851Z,74.75
2022-11-06T07:19:59.827Z,74.95
2022-11-06T07:23:29.226Z,74.64
2022-11-06T07:26:56.114Z,74.93
2022-11-06T07:30:23.334Z,75.05
2022-11-06T07:33:50.488Z,74.95
2022-11-06T07:37:17.568Z,75.06
2022-11-06T07:40:45.258Z,74.90
2022-11-06T07:44:13.077Z,75.05
2022-11-06T07:47:42.902Z,75.15
2022-11-06T07:51:12.683Z,75.17
2022-11-06T07:54:39.409Z,75.27
2022-11-06T07:58:06.460Z,75.33
2022-11-06T08:01:33.763Z,75.53
2022-11-06T08:05:01.107Z,75.69
2022-11-06T08:08:29.006Z,75.67
2022-11-06T08:11:55.756Z,75.88
2022-11-06T08:15:23.028Z,76.00
2022-11-06T08:18:49.800Z,76.03
2022-11-06T08:22:16.908Z,76.11
2022-11-06T08:25:44.185Z,76.26
2022-11-06T08:29:11.030Z,76.32
2022-11-06T08:32:38.170Z,76.22
2022-11-06T08:36:06.335Z,76.15
2022-11-06T08:39:33.362Z,76.13
2022-11-06T08:43:04.156Z,76.14
2022-11-06T08:46:31.409Z,76.31
2022-11-06T08:49:58.717Z,76.24
2022-11-06T08:53:25.603Z,76.29
2022-11-06T08:56:52.518Z,76.21
2022-11-06T09:00:23.260Z,76.37
2022-11-06T09:03:50.225Z,76.43
2022-11-06T09:07:17.622Z,76.60
2022-11-06T09:10:45.077Z,76.69
2022-11-06T09:14:12.043Z,76.77
2022-11-06T09:17:45.550Z,77.00
2022-11-06T09:21:12.967Z,76.99
2022-11-06T09:25:01.860Z,77.21
2022-11-06T09:28:26.421Z,77.30
2022-11-06T09:31:54.656Z,77.14
2022-11-06T09:35:22.823Z,77.38
2022-11-06T09:38:53.724Z,77.46
2022-11-06T09:42:32.537Z,77.30
2022-11-06T09:46:15.030Z,77.23
2022-11-06T09:49:50.205Z,77.10
2022-11-06T09:53:21.888Z,77.57
2022-11-06T09:56:57.139Z,77.61
2022-11-06T10:00:24.661Z,77.39
2022-11-06T10:03:56.522Z,77.21
2022-11-06T10:07:29.184Z,77.15
2022-11-06T10:11:05.619Z,77.17
2022-11-06T10:14:45.511Z,76.84
2022-11-06T10:18:21.019Z,76.82
2022-11-06T10:21:57.892Z,76.87
2022-11-06T10:25:32.543Z,76.90
2022-11-06T10:29:20.074Z,76.88
2022-11-06T10:33:05.500Z,76.77
2022-11-06T10:36:38.251Z,76.82
2022-11-06T10:40:08.628Z,76.64
2022-11-06T10:43:42.777Z,76.55
2022-11-06T10:47:19.796Z,76.28
2022-11-06T10:51:00.950Z,76.46
2022-11-06T10:54:46.594Z,76.24
2022-11-06T10:58:16.985Z,76.27
2022-11-06T11:01:47.784Z,76.00
2022-11-06T11:05:18.110Z,75.83
2022-11-06T11:08:47.042Z,75.89
2022-11-06T11:12:27.055Z,75.83
2022-11-06T11:15:55.350Z,75.47
2022-11-06T11:19:35.451Z,75.24
2022-11-06T11:23:18.061Z,75.11
2022-11-06T11:26:48.594Z,74.89
2022-11-06T11:30:26.622Z,74.74
2022-11-06T11:33:56.771Z,74.64
2022-11-06T11:37:29.663Z,74.67
2022-11-06T11:41:09.654Z,74.44
2022-11-06T11:44:37.800Z,74.05
2022-11-06T11:48:16.607Z,74.05
2022-11-06T11:51:46.315Z,73.95
2022-11-06T11:55:21.266Z,73.50
2022-11-06T11:58:56.670Z,73.25
2022-11-06T12:02:29.875Z,73.39
2022-11-06T12:06:05.249Z,73.05
2022-11-06T12:09:46.615Z,72.88
2022-11-06T12:13:23.076Z,72.90
2022-11-06T12:16:54.360Z,72.61
2022-11-06T12:20:26.237Z,72.30
2022-11-06T12:23:59.996Z,72.28
2022-11-06T12:27:30.134Z,72.11
2022-11-06T12:31:05.835Z,72.21
2022-11-06T12:34:39.940Z,71.91
2022-11-06T12:38:20.622Z,71.75
2022-11-06T12:41:52.238Z,71.53
2022-11-06T12:45:20.200Z,71.28
2022-11-06T12:49:16.983Z,70.95
2022-11-06T12:53:02.060Z,70.86
2022-11-06T12:56:44.541Z,70.58
2022-11-06T13:00:16.924Z,70.39
2022-11-06T13:04:10.470Z,70.49
2022-11-06T13:08:03.009Z,70.02
2022-11-06T13:11:40.369Z,69.87
2022-11-06T13:15:20.357Z,69.94
2022-11-06T13:18:53.536Z,69.86
2022-11-06T13:22:25.852Z,69.87
2022-11-06T13:25:59.422Z,69.79
2022-11-06T13:29:28.297Z,69.98
2022-11-06T13:33:04.979Z,69.65
2022-11-06T13:36:37.002Z,69.89
2022-11-06T13:40:07.175Z,69.47
2022-11-06T13:43:39.255Z,69.46
2022-11-06T13:47:15.780Z,69.30
2022-11-06T13:50:51.805Z,69.28
2022-11-06T13:54:42.538Z,69.13
2022-11-06T13:58:32.901Z,69.15
2022-11-06T14:02:13.662Z,69.27
2022-11-06T14:05:58.068Z,69.26
2022-11-06T14:09:28.134Z,69.16
2022-11-06T14:12:55.544Z,69.11
2022-11-06T14:16:34.320Z,69.03
2022-11-06T14:20:09.064Z,69.02
2022-11-06T14:23:57.367Z,68.89
2022-11-06T14:27:58.752Z,68.94
2022-11-06T14:31:56.389Z,68.99
2022-11-06T14:35:52.331Z,69.02
2022-11-06T14:39:39.995Z,68.96
2022-11-06T14:43:19.550Z,69.03
2022-11-06T14:46:53.102Z,68.94
2022-11-06T14:50:29.636Z,68.93
2022-11-06T14:53:59.256Z,69.18
2022-11-06T14:57:43.530Z,69.20
2022-11-06T15:01:25.518Z,69.23
2022-11-06T15:05:00.253Z,69.34
2022-11-06T15:08:55.665Z,69.26
2022-11-06T15:12:42.191Z,69.37
2022-11-06T15:16:14.601Z,69.31
2022-11-06T15:19:47.704Z,69.32
2022-11-06T15:23:24.999Z,69.40
2022-11-06T15:26:55.757Z,69.32
2022-11-06T15:30:23.484Z,69.29
2022-11-06T15:33:58.155Z,69.28
2022-11-06T15:37:31.389Z,69.30
2022-11-06T15:40:58.292Z,69.20
2022-11-06T15:44:26.841Z,69.36
2022-11-06T15:48:02.443Z,69.55
2022-11-06T15:51:30.833Z,69.49
2022-11-06T15:54:59.897Z,69.67
2022-11-06T15:58:33.833Z,69.59
2022-11-06T16:02:05.891Z,69.73
2022-11-06T16:05:36.416Z,69.75
2022-11-06T16:09:04.218Z,69.87
2022-11-06T16:12:31.688Z,69.94
2022-11-06T16:16:01.601Z,69.98
2022-11-06T16:19:34.394Z,70.05
2022-11-06T16:23:06.692Z,69.98
2022-11-06T16:26:44.471Z,70.13
2022-11-06T16:30:25.686Z,70.23
2022-11-06T16:34:00.908Z,70.34
2022-11-06T16:37:41.156Z,70.09
2022-11-06T16:41:09.465Z,70.15
2022-11-06T16:44:49.539Z,70.57
2022-11-06T16:48:35.930Z,70.31
2022-11-06T16:52:03.396Z,70.63
2022-11-06T16:55:34.700Z,70.34
2022-11-06T16:59:08.057Z,70.49
2022-11-06T17:02:40.569Z,70.64
2022-11-06T17:06:08.809Z,70.91
2022-11-06T17:09:37.717Z,71.03
2022-11-06T17:13:15.454Z,70.75
2022-11-06T17:16:51.777Z,70.65
2022-11-06T17:20:21.813Z,70.86
2022-11-06T17:23:51.325Z,70.57
2022-11-06T17:27:22.086Z,70.64
2022-11-06T17:30:52.905Z,70.52
2022-11-06T17:34:21.709Z,70.75
2022-11-06T17:37:49.727Z,70.61
2022-11-06T17:41:30.255Z,70.79
2022-11-06T17:45:04.384Z,70.73
2022-11-06T17:48:34.340Z,71.02
2022-11-06T17:52:07.296Z,70.90
2022-11-06T17:55:34.775Z,71.32
2022-11-06T17:59:01.446Z,71.25
2022-11-06T18:02:54.986Z,71.18
2022-11-06T18:06:17.656Z,71.22
2022-11-06T18:09:44.694Z,71.06
2022-11-06T18:13:11.457Z,71.35
2022-11-06T18:16:44.132Z,71.29
2022-11-06T18:20:14.116Z,71.63
2022-11-06T18:23:41.861Z,71.38
2022-11-06T18:27:09.451Z,71.08
2022-11-06T18:30:41.357Z,71.31
2022-11-06T18:34:12.950Z,71.64
2022-11-06T18:37:47.180Z,71.59
2022-11-06T18:41:16.399Z,71.23
2022-11-06T18:44:46.735Z,71.53
2022-11-06T18:48:17.155Z,71.34
2022-11-06T18:51:47.994Z,71.73
2022-11-06T18:55:17.421Z,72.03
2022-11-06T18:58:45.724Z,71.78
2022-11-06T19:02:15.182Z,71.75
2022-11-06T19:05:57.517Z,72.16
2022-11-06T19:09:25.423Z,72.44
2022-11-06T19:12:52.609Z,72.31
2022-11-06T19:16:20.607Z,72.45
2022-11-06T19:19:50.549Z,72.30
2022-11-06T19:23:24.876Z,72.66
2022-11-06T19:26:53.147Z,72.20
2022-11-06T19:30:23.545Z,72.22
2022-11-06T19:33:54.003Z,71.97
2022-11-06T19:37:24.465Z,72.31
2022-11-06T19:41:04.235Z,72.26
2022-11-06T19:44:31.627Z,72.22
2022-11-06T19:48:02.209Z,72.23
2022-11-06T19:51:34.200Z,72.22
2022-11-06T19:55:24.928Z,72.21
2022-11-06T19:58:55.404Z,72.41
2022-11-06T20:02:42.225Z,72.33
2022-11-06T20:06:15.431Z,72.63
2022-11-06T20:09:44.657Z,72.45
2022-11-06T20:13:16.974Z,72.79
2022-11-06T20:16:45.740Z,72.73
2022-11-06T20:20:16.049Z,72.94
2022-11-06T20:23:45.027Z,72.81
2022-11-06T20:27:13.325Z,72.96
2022-11-06T20:30:45.283Z,72.65
2022-11-06T20:34:12.950Z,72.60
2022-11-06T20:37:40.328Z,72.65
2022-11-06T20:41:07.007Z,72.42
2022-11-06T20:44:36.734Z,72.27
2022-11-06T20:48:11.023Z,72.37
2022-11-06T20:52:07.385Z,72.43
2022-11-06T20:55:31.959Z,72.25
2022-11-06T20:59:03.280Z,72.07
2022-11-06T21:02:36.377Z,72.24
2022-11-06T21:06:03.759Z,72.42
2022-11-06T21:09:33.394Z,72.47
2022-11-06T21:13:04.522Z,72.45
2022-11-06T21:16:42.577Z,72.66
2022-11-06T21:20:16.983Z,72.61
2022-11-06T21:23:51.821Z,72.66
2022-11-06T21:27:20.856Z,72.82
2022-11-06T21:30:51.982Z,72.82
2022-11-06T21:34:21.072Z,72.93
2022-11-06T21:37:55.088Z,72.76
2022-11-06T21:41:27.655Z,72.78
2022-11-06T21:44:58.755Z,72.71
2022-11-06T21:48:45.360Z,72.76
2022-11-06T21:52:33.667Z,72.73
2022-11-06T21:56:08.139Z,72.82
2022-11-06T21:59:38.991Z,72.77
2022-11-06T22:03:06.497Z,72.70
2022-11-06T22:06:33.615Z,73.00
2022-11-06T22:10:00.607Z,73.09
2022-11-06T22:13:27.561Z,73.08
2022-11-06T22:16:55.439Z,73.28
2022-11-06T22:20:23.919Z,73.35
2022-11-06T22:23:51.084Z,73.52
2022-11-06T22:27:21.581Z,73.33
2022-11-06T22:30:48.331Z,73.41
2022-11-06T22:34:15.826Z,73.43
2022-11-06T22:38:10.473Z,73.50
2022-11-06T22:41:37.549Z,73.42
2022-11-06T22:45:06.403Z,73.27
2022-11-06T22:48:34.895Z,73.04
2022-11-06T22:52:01.626Z,73.02
2022-11-06T22:55:28.428Z,73.23
2022-11-06T22:58:58.356Z,73.17
2022-11-06T23:02:25.558Z,73.09
2022-11-06T23:05:52.725Z,73.15
2022-11-06T23:09:19.865Z,73.31
2022-11-06T23:12:49.444Z,73.33
2022-11-06T23:16:43.317Z,73.44
2022-11-06T23:20:12.020Z,73.61
2022-11-06T23:23:39.081Z,73.69
2022-11-06T23:27:06.765Z,73.82
2022-11-06T23:30:34.107Z,73.84
2022-11-06T23:34:01.317Z,73.92
2022-11-06T23:37:28.987Z,73.62
2022-11-06T23:41:19.580Z,73.83
2022-11-06T23:45:05.577Z,73.87
2022-11-06T23:48:32.937Z,73.82
2022-11-06T23:52:08.953Z,73.63
2022-11-06T23:55:37.545Z,73.45
2022-11-06T23:59:06.631Z,73.54
